createdAt,value
2022-10-04T00:02:19.613Z,71.40
2022-10-04T00:05:13.978Z,71.40
2022-10-04T00:07:47.738Z,71.50
2022-10-04T00:10:41.657Z,71.50
2022-10-04T00:13:33.350Z,71.70
2022-10-04T00:16:01.191Z,71.80
2022-10-04T00:18:47.388Z,71.60
2022-10-04T00:21:14.942Z,71.60
2022-10-04T00:23:51.378Z,71.80
2022-10-04T00:26:30.363Z,71.80
2022-10-04T00:28:57.558Z,71.60
2022-10-04T00:31:33.939Z,71.60
2022-10-04T00:34:16.464Z,71.40
2022-10-04T00:36:53.117Z,71.50
2022-10-04T00:39:41.359Z,71.70
2022-10-04T00:42:08.549Z,71.60
2022-10-04T00:45:03.413Z,71.50
2022-10-04T00:47:46.549Z,71.70
2022-10-04T00:50:52.362Z,72.00
2022-10-04T00:54:06.437Z,72.40
2022-10-04T00:56:53.710Z,72.20
2022-10-04T00:59:42.585Z,72.30
2022-10-04T01:02:20.625Z,72.30
2022-10-04T01:05:15.521Z,72.10
2022-10-04T01:07:58.487Z,72.00
2022-10-04T01:11:01.272Z,72.20
2022-10-04T01:14:01.500Z,72.60
2022-10-04T01:16:40.598Z,72.40
2022-10-04T01:19:30.780Z,72.40
2022-10-04T01:22:19.509Z,72.40
2022-10-04T01:24:53.639Z,72.20
2022-10-04T01:27:44.030Z,72.30
2022-10-04T01:30:22.830Z,72.40
2022-10-04T01:32:51.260Z,72.50
2022-10-04T01:35:26.909Z,72.30
2022-10-04T01:37:56.592Z,72.50
2022-10-04T01:40:24.052Z,72.50
2022-10-04T01:43:03.549Z,72.40
2022-10-04T01:45:42.030Z,72.50
2022-10-04T01:48:19.430Z,72.50
2022-10-04T01:51:02.759Z,72.60
2022-10-04T01:54:07.490Z,72.40
2022-10-04T01:56:54.380Z,72.30
2022-10-04T01:59:30.874Z,72.30
2022-10-04T02:02:26.380Z,72.30
2022-10-04T02:05:05.476Z,72.30
2022-10-04T02:07:37.030Z,72.40
2022-10-04T02:10:16.689Z,72.60
2022-10-04T02:12:51.830Z,72.90
2022-10-04T02:15:28.090Z,73.20
2022-10-04T02:17:57.590Z,73.30
2022-10-04T02:20:34.780Z,73.40
2022-10-04T02:23:06.390Z,73.50
2022-10-04T02:25:42.330Z,73.40
2022-10-04T02:28:22.524Z,73.40
2022-10-04T02:31:17.951Z,73.70
2022-10-04T02:33:48.948Z,73.70
2022-10-04T02:36:24.683Z,73.90
2022-10-04T02:39:05.290Z,74.00
2022-10-04T02:41:47.380Z,74.00
2022-10-04T02:44:17.540Z,74.00
2022-10-04T02:47:05.400Z,74.10
2022-10-04T02:49:40.548Z,74.00
2022-10-04T02:52:28.370Z,74.20
2022-10-04T02:55:26.431Z,74.20
2022-10-04T02:58:01.040Z,74.30
2022-10-04T03:00:37.907Z,74.50
2022-10-04T03:03:16.919Z,74.60
2022-10-04T03:06:17.531Z,74.60
2022-10-04T03:08:51.049Z,74.50
2022-10-04T03:11:29.609Z,74.60
2022-10-04T03:14:07.439Z,74.50
2022-10-04T03:16:45.959Z,74.40
2022-10-04T03:19:22.480Z,74.40
2022-10-04T03:21:53.741Z,74.30
2022-10-04T03:24:31.791Z,74.40
2022-10-04T03:27:04.412Z,74.30
2022-10-04T03:29:41.539Z,74.40
2022-10-04T03:32:13.311Z,74.50
2022-10-04T03:34:51.899Z,74.60
2022-10-04T03:37:22.389Z,74.60
2022-10-04T03:39:59.440Z,74.40
2022-10-04T03:42:30.300Z,74.40
2022-10-04T03:45:09.460Z,74.30
2022-10-04T03:47:41.013Z,74.20
2022-10-04T03:50:33.490Z,74.30
2022-10-04T03:53:31.531Z,74.40
2022-10-04T03:56:25.810Z,74.50
2022-10-04T03:59:01.340Z,74.60
2022-10-04T04:02:08.597Z,74.60
2022-10-04T04:05:03.549Z,74.80
2022-10-04T04:07:41.510Z,74.90
2022-10-04T04:10:27.920Z,75.00
2022-10-04T04:13:08.460Z,75.00
2022-10-04T04:15:42.828Z,75.10
2022-10-04T04:18:29.711Z,75.10
2022-10-04T04:20:59.822Z,75.10
2022-10-04T04:23:46.971Z,75.00
2022-10-04T04:26:31.893Z,75.00
2022-10-04T04:29:22.483Z,74.90
2022-10-04T04:31:56.876Z,74.80
2022-10-04T04:34:39.580Z,74.40
2022-10-04T04:37:18.720Z,74.40
2022-10-04T04:39:52.751Z,74.60
2022-10-04T04:42:41.480Z,74.60
2022-10-04T04:45:26.427Z,74.30
2022-10-04T04:47:57.689Z,74.30
2022-10-04T04:50:42.605Z,74.40
2022-10-04T04:53:23.527Z,74.60
2022-10-04T04:56:18.206Z,74.40
2022-10-04T04:58:49.219Z,74.30
2022-10-04T05:01:44.859Z,74.40
2022-10-04T05:04:13.362Z,74.50
2022-10-04T05:06:49.501Z,74.50
2022-10-04T05:09:27.090Z,74.50
2022-10-04T05:12:04.439Z,74.50
2022-10-04T05:14:32.121Z,74.40
2022-10-04T05:17:06.612Z,74.60
2022-10-04T05:19:37.402Z,74.80
2022-10-04T05:22:19.457Z,74.80
2022-10-04T05:24:58.627Z,74.90
2022-10-04T05:27:35.777Z,74.70
2022-10-04T05:30:13.851Z,74.60
2022-10-04T05:33:03.039Z,74.60
2022-10-04T05:36:02.602Z,74.70
2022-10-04T05:38:35.756Z,74.60
2022-10-04T05:41:24.565Z,74.50
2022-10-04T05:43:52.589Z,74.60
2022-10-04T05:46:32.448Z,74.40
2022-10-04T05:49:08.433Z,74.40
2022-10-04T05:51:55.506Z,74.50
2022-10-04T05:54:47.448Z,74.60
2022-10-04T05:57:49.708Z,74.70
2022-10-04T06:01:00.935Z,74.80
2022-10-04T06:04:03.593Z,74.80
2022-10-04T06:06:59.462Z,74.90
2022-10-04T06:09:38.585Z,74.90
2022-10-04T06:12:44.392Z,75.10
2022-10-04T06:15:33.339Z,75.00
2022-10-04T06:18:46.470Z,75.10
2022-10-04T06:21:29.086Z,75.30
2022-10-04T06:24:26.917Z,75.40
2022-10-04T06:27:33.975Z,75.30
2022-10-04T06:30:20.621Z,75.10
2022-10-04T06:33:10.815Z,75.10
2022-10-04T06:35:58.444Z,75.10
2022-10-04T06:38:46.455Z,75.00
2022-10-04T06:41:35.835Z,75.00
2022-10-04T06:44:17.659Z,75.10
2022-10-04T06:47:01.497Z,75.20
2022-10-04T06:49:38.111Z,75.30
2022-10-04T06:52:43.419Z,75.40
2022-10-04T06:55:33.440Z,75.30
2022-10-04T06:58:40.562Z,75.20
2022-10-04T07:01:08.336Z,75.20
2022-10-04T07:04:00.434Z,75.20
2022-10-04T07:07:22.536Z,75.10
2022-10-04T07:09:54.739Z,75.00
2022-10-04T07:12:28.646Z,74.80
2022-10-04T07:15:01.529Z,74.80
2022-10-04T07:17:44.884Z,74.80
2022-10-04T07:20:32.529Z,74.60
2022-10-04T07:23:13.511Z,74.40
2022-10-04T07:25:54.546Z,74.30
2022-10-04T07:28:53.606Z,74.20
2022-10-04T07:31:36.646Z,74.10
2022-10-04T07:34:25.701Z,74.00
2022-10-04T07:37:03.776Z,73.90
2022-10-04T07:40:06.494Z,73.90
2022-10-04T07:43:01.701Z,74.00
2022-10-04T07:45:46.683Z,73.90
2022-10-04T07:48:25.061Z,73.80
2022-10-04T07:51:10.373Z,73.70
2022-10-04T07:53:52.796Z,73.60
2022-10-04T07:56:38.539Z,73.40
2022-10-04T07:59:15.926Z,73.40
2022-10-04T08:02:09.811Z,73.50
2022-10-04T08:05:13.390Z,73.50
2022-10-04T08:08:12.691Z,73.30
2022-10-04T08:11:17.936Z,73.10
2022-10-04T08:14:16.533Z,72.90
2022-10-04T08:17:18.530Z,73.00
2022-10-04T08:19:55.198Z,73.20
2022-10-04T08:22:44.665Z,73.10
2022-10-04T08:25:23.592Z,73.10
2022-10-04T08:28:28.323Z,72.60
2022-10-04T08:31:36.446Z,72.30
2022-10-04T08:34:10.836Z,72.10
2022-10-04T08:36:47.001Z,71.30
2022-10-04T08:40:10.749Z,71.00
2022-10-04T08:43:07.690Z,70.60
2022-10-04T08:45:35.152Z,70.50
2022-10-04T08:48:53.542Z,71.10
2022-10-04T08:51:48.447Z,70.70
2022-10-04T08:54:47.272Z,70.40
2022-10-04T08:57:46.552Z,70.00
2022-10-04T09:00:40.386Z,69.50
2022-10-04T09:03:33.515Z,69.10
2022-10-04T09:06:49.479Z,68.70
2022-10-04T09:09:41.390Z,68.50
2022-10-04T09:12:20.468Z,67.90
2022-10-04T09:15:12.776Z,67.40
2022-10-04T09:18:03.211Z,66.60
2022-10-04T09:21:09.566Z,65.70
2022-10-04T09:23:46.452Z,64.70
2022-10-04T09:27:13.070Z,64.10
2022-10-04T09:30:26.511Z,62.20
2022-10-04T09:33:32.642Z,61.60
2022-10-04T09:36:31.041Z,61.30
2022-10-04T09:39:30.402Z,61.40
2022-10-04T09:42:31.446Z,61.80
2022-10-04T09:45:28.744Z,61.40
2022-10-04T09:48:14.810Z,60.40
2022-10-04T09:51:00.495Z,60.10
2022-10-04T09:53:53.222Z,59.80
2022-10-04T09:56:55.586Z,59.30
2022-10-04T09:59:37.683Z,59.40
2022-10-04T10:02:35.966Z,59.40
2022-10-04T10:05:12.121Z,59.20
2022-10-04T10:08:19.551Z,58.90
2022-10-04T10:11:20.750Z,58.00
2022-10-04T10:14:24.761Z,57.20
2022-10-04T10:17:44.625Z,57.30
2022-10-04T10:20:33.231Z,57.10
2022-10-04T10:23:53.009Z,57.40
2022-10-04T10:27:02.574Z,57.10
2022-10-04T10:29:57.839Z,56.90
2022-10-04T10:32:52.922Z,56.60
2022-10-04T10:35:36.564Z,56.50
2022-10-04T10:38:29.518Z,55.80
2022-10-04T10:41:41.552Z,54.80
2022-10-04T10:44:30.549Z,54.50
2022-10-04T10:47:29.959Z,53.70
2022-10-04T10:50:22.850Z,53.30
2022-10-04T10:53:20.984Z,53.00
2022-10-04T10:56:15.783Z,52.70
2022-10-04T10:59:08.583Z,52.10
2022-10-04T11:02:19.599Z,51.70
2022-10-04T11:04:55.028Z,51.50
2022-10-04T11:07:44.447Z,50.90
2022-10-04T11:10:39.685Z,50.90
2022-10-04T11:13:53.602Z,50.70
2022-10-04T11:16:23.624Z,50.60
2022-10-04T11:19:22.686Z,50.00
2022-10-04T11:22:08.847Z,49.70
2022-10-04T11:25:14.977Z,49.10
2022-10-04T11:28:03.477Z,48.80
2022-10-04T11:30:59.620Z,49.20
2022-10-04T11:33:49.617Z,48.90
2022-10-04T11:36:45.929Z,48.40
2022-10-04T11:39:34.331Z,48.20
2022-10-04T11:42:26.336Z,47.70
2022-10-04T11:45:30.556Z,47.20
2022-10-04T11:48:32.391Z,47.50
2022-10-04T11:51:38.736Z,47.30
2022-10-04T11:54:48.626Z,47.00
2022-10-04T11:57:37.647Z,46.60
2022-10-04T12:00:33.361Z,46.20
2022-10-04T12:03:25.333Z,46.30
2022-10-04T12:06:10.612Z,46.40
2022-10-04T12:08:53.856Z,46.30
2022-10-04T12:12:11.432Z,46.30
2022-10-04T12:15:41.632Z,46.10
2022-10-04T12:18:53.201Z,45.80
2022-10-04T12:21:29.914Z,45.90
2022-10-04T12:24:14.516Z,45.80
2022-10-04T12:27:25.530Z,45.60
2022-10-04T12:30:38.225Z,45.60
2022-10-04T12:33:30.511Z,45.50
2022-10-04T12:36:25.685Z,45.50
2022-10-04T12:39:38.686Z,45.60
2022-10-04T12:42:19.310Z,45.70
2022-10-04T12:45:20.605Z,45.70
2022-10-04T12:47:56.145Z,45.60
2022-10-04T12:50:53.811Z,45.50
2022-10-04T12:53:24.349Z,45.60
2022-10-04T12:56:29.771Z,45.20
2022-10-04T12:59:22.673Z,45.10
2022-10-04T13:02:28.830Z,45.50
2022-10-04T13:05:04.492Z,45.50
2022-10-04T13:08:05.734Z,45.20
2022-10-04T13:11:01.244Z,45.10
2022-10-04T13:14:06.553Z,45.00
2022-10-04T13:20:29.518Z,44.40
2022-10-04T13:22:57.906Z,44.40
2022-10-04T13:25:52.723Z,44.40
2022-10-04T13:28:32.336Z,44.80
2022-10-04T13:31:31.649Z,44.80
2022-10-04T13:34:23.937Z,44.40
2022-10-04T13:37:18.700Z,44.60
2022-10-04T13:40:24.052Z,44.50
2022-10-04T13:43:28.031Z,44.20
2022-10-04T13:46:48.597Z,44.20
2022-10-04T13:49:43.588Z,44.20
2022-10-04T13:52:55.815Z,44.50
2022-10-04T13:56:08.736Z,44.60
2022-10-04T13:59:14.600Z,44.80
2022-10-04T14:01:56.665Z,44.90
2022-10-04T14:05:05.810Z,44.90
2022-10-04T14:08:19.447Z,45.00
2022-10-04T14:11:13.811Z,45.00
2022-10-04T14:14:07.588Z,45.10
2022-10-04T14:16:55.588Z,45.00
2022-10-04T14:20:04.891Z,44.90
2022-10-04T14:22:47.617Z,45.10
2022-10-04T14:25:21.625Z,45.10
2022-10-04T14:28:29.810Z,45.20
2022-10-04T14:31:06.437Z,45.40
2022-10-04T14:33:54.609Z,45.50
2022-10-04T14:36:41.345Z,45.70
2022-10-04T14:39:49.549Z,45.70
2022-10-04T14:42:31.555Z,45.80
2022-10-04T14:45:35.696Z,45.70
2022-10-04T14:48:31.557Z,45.70
2022-10-04T14:51:20.651Z,45.80
2022-10-04T14:54:01.027Z,45.90
2022-10-04T14:56:53.530Z,46.20
2022-10-04T14:59:36.347Z,46.40
2022-10-04T15:02:38.622Z,46.40
2022-10-04T15:05:39.626Z,46.40
2022-10-04T15:08:22.328Z,46.40
2022-10-04T15:11:12.507Z,46.40
2022-10-04T15:13:56.680Z,46.60
2022-10-04T15:17:06.997Z,46.80
2022-10-04T15:19:59.802Z,47.10
2022-10-04T15:22:40.821Z,47.20
2022-10-04T15:25:47.556Z,47.40
2022-10-04T15:28:27.015Z,47.50
2022-10-04T15:31:23.659Z,47.60
2022-10-04T15:34:12.821Z,47.80
2022-10-04T15:36:58.294Z,48.10
2022-10-04T15:39:58.284Z,48.30
2022-10-04T15:42:30.181Z,48.80
2022-10-04T15:45:25.512Z,49.20
2022-10-04T15:48:30.837Z,49.80
2022-10-04T15:51:12.980Z,50.50
2022-10-04T15:54:03.907Z,51.10
2022-10-04T15:56:59.801Z,51.80
2022-10-04T15:59:37.374Z,52.50
2022-10-04T16:02:33.108Z,53.10
2022-10-04T16:05:27.983Z,53.40
2022-10-04T16:08:07.554Z,53.90
2022-10-04T16:11:14.650Z,54.30
2022-10-04T16:14:00.148Z,54.80
2022-10-04T16:16:36.852Z,55.20
2022-10-04T16:19:16.587Z,55.90
2022-10-04T16:22:14.996Z,56.50
2022-10-04T16:24:54.367Z,56.80
2022-10-04T16:27:44.597Z,57.20
2022-10-04T16:30:28.094Z,57.50
2022-10-04T16:33:47.732Z,57.90
2022-10-04T16:36:22.947Z,58.30
2022-10-04T16:39:21.638Z,58.70
2022-10-04T16:42:06.668Z,59.00
2022-10-04T16:44:50.122Z,59.60
2022-10-04T16:47:54.098Z,59.60
2022-10-04T16:51:08.691Z,60.10
2022-10-04T16:54:23.552Z,60.10
2022-10-04T16:57:05.609Z,60.20
2022-10-04T17:00:07.711Z,60.50
2022-10-04T17:02:55.575Z,60.80
2022-10-04T17:05:50.332Z,61.10
2022-10-04T17:08:24.627Z,61.20
2022-10-04T17:11:27.197Z,61.40
2022-10-04T17:14:12.759Z,61.60
2022-10-04T17:17:07.867Z,61.90
2022-10-04T17:20:11.026Z,62.10
2022-10-04T17:22:53.058Z,62.50
2022-10-04T17:25:45.946Z,62.80
2022-10-04T17:28:26.147Z,63.20
2022-10-04T17:31:15.449Z,63.40
2022-10-04T17:33:53.053Z,63.60
2022-10-04T17:36:39.479Z,63.80
2022-10-04T17:39:34.664Z,64.00
2022-10-04T17:42:21.189Z,64.30
2022-10-04T17:45:11.243Z,64.40
2022-10-04T17:48:30.658Z,64.30
2022-10-04T17:51:39.653Z,64.20
2022-10-04T17:54:47.873Z,64.20
2022-10-04T17:57:47.694Z,64.40
2022-10-04T18:00:30.713Z,64.70
2022-10-04T18:03:16.773Z,64.70
2022-10-04T18:05:47.035Z,64.90
2022-10-04T18:08:32.834Z,65.20
2022-10-04T18:11:25.214Z,65.20
2022-10-04T18:14:08.360Z,65.10
2022-10-04T18:17:12.634Z,65.10
2022-10-04T18:19:55.415Z,65.30
2022-10-04T18:22:33.878Z,65.70
2022-10-04T18:25:30.675Z,65.70
2022-10-04T18:28:07.281Z,65.70
2022-10-04T18:30:58.968Z,65.80
2022-10-04T18:33:35.415Z,65.70
2022-10-04T18:36:29.824Z,65.60
2022-10-04T18:39:18.738Z,65.40
2022-10-04T18:41:58.149Z,65.50
2022-10-04T18:44:38.679Z,65.70
2022-10-04T18:47:34.553Z,66.00
2022-10-04T18:50:09.574Z,65.80
2022-10-04T18:52:53.254Z,65.50
2022-10-04T18:55:51.224Z,65.50
2022-10-04T18:59:01.653Z,65.50
2022-10-04T19:01:56.485Z,65.70
2022-10-04T19:05:13.629Z,65.70
2022-10-04T19:08:07.974Z,65.90
2022-10-04T19:11:14.697Z,66.20
2022-10-04T19:14:19.519Z,66.20
2022-10-04T19:17:06.863Z,66.60
2022-10-04T19:20:09.677Z,67.20
2022-10-04T19:23:09.845Z,67.00
2022-10-04T19:26:09.885Z,66.80
2022-10-04T19:28:43.638Z,66.70
2022-10-04T19:31:54.086Z,66.60
2022-10-04T19:34:50.999Z,66.70
2022-10-04T19:37:35.575Z,67.00
2022-10-04T19:40:24.818Z,66.80
2022-10-04T19:42:52.044Z,66.90
2022-10-04T19:45:56.078Z,67.00
2022-10-04T19:48:28.819Z,67.20
2022-10-04T19:51:27.691Z,67.10
2022-10-04T19:54:04.138Z,67.20
2022-10-04T19:56:42.829Z,67.20
2022-10-04T19:59:35.438Z,67.30
2022-10-04T20:02:03.221Z,67.40
2022-10-04T20:04:45.754Z,67.80
2022-10-04T20:07:24.706Z,68.00
2022-10-04T20:10:16.324Z,68.20
2022-10-04T20:13:12.783Z,68.20
2022-10-04T20:15:40.504Z,68.50
2022-10-04T20:18:38.829Z,68.20
2022-10-04T20:21:16.833Z,68.20
2022-10-04T20:23:48.163Z,68.40
2022-10-04T20:27:02.779Z,68.30
2022-10-04T20:29:39.577Z,68.30
2022-10-04T20:32:15.687Z,68.40
2022-10-04T20:34:46.021Z,68.70
2022-10-04T20:37:23.735Z,68.50
2022-10-04T20:39:56.700Z,68.70
2022-10-04T20:42:36.682Z,68.60
2022-10-04T20:45:16.937Z,68.20
2022-10-04T20:48:01.738Z,68.20
2022-10-04T20:50:40.661Z,68.30
2022-10-04T20:53:29.723Z,68.40
2022-10-04T20:56:37.018Z,68.50
2022-10-04T20:59:11.707Z,68.80
2022-10-04T21:01:50.717Z,68.50
2022-10-04T21:04:33.902Z,68.20
2022-10-04T21:07:15.596Z,68.20
2022-10-04T21:09:43.168Z,68.20
2022-10-04T21:12:38.656Z,68.30
2022-10-04T21:15:07.663Z,68.40
2022-10-04T21:17:43.717Z,68.40
2022-10-04T21:20:35.397Z,68.40
2022-10-04T21:23:38.822Z,68.50
2022-10-04T21:26:23.893Z,68.60
2022-10-04T21:29:03.668Z,68.60
2022-10-04T21:31:31.022Z,68.70
2022-10-04T21:34:04.712Z,68.70
2022-10-04T21:36:32.063Z,68.80
2022-10-04T21:39:06.002Z,68.90
2022-10-04T21:41:33.125Z,69.10
2022-10-04T21:44:06.757Z,69.00
2022-10-04T21:46:34.908Z,69.10
2022-10-04T21:49:08.745Z,69.40
2022-10-04T21:51:46.907Z,69.40
2022-10-04T21:54:14.176Z,69.20
2022-10-04T21:57:01.717Z,69.40
2022-10-04T21:59:35.804Z,69.40
2022-10-04T22:02:03.973Z,69.40
2022-10-04T22:04:37.631Z,69.30
2022-10-04T22:07:05.175Z,69.40
2022-10-04T22:09:39.874Z,69.20
2022-10-04T22:12:07.070Z,69.20
2022-10-04T22:14:40.803Z,69.10
2022-10-04T22:17:07.951Z,69.10
2022-10-04T22:19:41.623Z,69.20
2022-10-04T22:22:16.700Z,69.40
2022-10-04T22:24:50.679Z,69.30
2022-10-04T22:27:20.731Z,69.20
2022-10-04T22:29:54.748Z,69.10
2022-10-04T22:32:30.171Z,69.10
2022-10-04T22:35:18.175Z,69.20
2022-10-04T22:37:46.411Z,69.30
2022-10-04T22:40:32.718Z,69.40
2022-10-04T22:43:01.127Z,69.40
2022-10-04T22:45:31.625Z,69.40
2022-10-04T22:48:09.658Z,69.30
2022-10-04T22:50:38.183Z,69.20
2022-10-04T22:53:23.058Z,69.40
2022-10-04T22:56:10.033Z,70.10
2022-10-04T22:58:43.917Z,69.60
2022-10-04T23:01:18.479Z,69.30
2022-10-04T23:03:54.741Z,69.40
2022-10-04T23:06:21.851Z,69.30
2022-10-04T23:08:55.764Z,69.10
2022-10-04T23:11:22.968Z,69.00
2022-10-04T23:13:56.678Z,69.10
2022-10-04T23:16:30.795Z,69.10
2022-10-04T23:19:20.509Z,69.10
2022-10-04T23:21:56.685Z,69.10
2022-10-04T23:24:24.406Z,69.10
2022-10-04T23:27:03.917Z,69.40
2022-10-04T23:29:34.934Z,69.30
2022-10-04T23:32:19.156Z,69.20
2022-10-04T23:34:55.676Z,69.20
2022-10-04T23:37:34.527Z,69.30
2022-10-04T23:40:01.861Z,69.20
2022-10-04T23:42:38.701Z,69.10
2022-10-04T23:45:26.947Z,69.20
2022-10-04T23:48:03.812Z,69.30
2022-10-04T23:50:43.742Z,69.10
2022-10-04T23:53:30.801Z,69.00
2022-10-04T23:56:25.794Z,69.00
2022-10-04T23:58:55.724Z,69.10
